createdAt,value
2023-05-10T00:01:29.388Z,99.90
2023-05-10T00:03:56.426Z,99.90
2023-05-10T00:06:23.408Z,99.90
2023-05-10T00:08:50.357Z,99.90
2023-05-10T00:11:17.217Z,99.90
2023-05-10T00:13:44.078Z,99.90
2023-05-10T00:16:11.023Z,99.90
2023-05-10T00:18:37.901Z,99.90
2023-05-10T00:21:05.061Z,99.90
2023-05-10T00:23:31.909Z,99.90
2023-05-10T00:25:58.798Z,99.90
2023-05-10T00:28:25.873Z,99.90
2023-05-10T00:30:52.775Z,99.90
2023-05-10T00:33:19.693Z,99.90
2023-05-10T00:35:46.535Z,99.90
2023-05-10T00:38:20.058Z,99.90
2023-05-10T00:40:47.298Z,99.90
2023-05-10T00:43:22.648Z,99.90
2023-05-10T00:45:49.861Z,99.90
2023-05-10T00:48:16.987Z,99.90
2023-05-10T00:50:43.910Z,99.90
2023-05-10T00:53:11.410Z,99.90
2023-05-10T00:55:38.504Z,99.90
2023-05-10T00:58:05.789Z,99.90
2023-05-10T01:00:33.985Z,99.90
2023-05-10T01:03:01.729Z,99.90
2023-05-10T01:05:28.851Z,99.90
2023-05-10T01:07:57.504Z,99.90
2023-05-10T01:10:24.604Z,99.90
2023-05-10T01:12:51.864Z,99.90
2023-05-10T01:15:19.069Z,99.90
2023-05-10T01:17:46.383Z,99.90
2023-05-10T01:20:13.564Z,99.90
2023-05-10T01:22:59.264Z,99.90
2023-05-10T01:25:37.835Z,99.90
2023-05-10T01:28:16.670Z,99.90
2023-05-10T01:30:55.959Z,99.90
2023-05-10T01:33:31.723Z,99.90
2023-05-10T01:36:20.377Z,99.90
2023-05-10T01:38:57.620Z,99.90
2023-05-10T01:41:50.560Z,99.90
2023-05-10T01:44:40.349Z,99.90
2023-05-10T01:47:19.978Z,99.90
2023-05-10T01:49:50.649Z,99.90
2023-05-10T01:52:23.437Z,99.90
2023-05-10T01:54:57.090Z,99.90
2023-05-10T01:57:25.815Z,99.90
2023-05-10T01:59:52.836Z,99.90
2023-05-10T02:02:22.898Z,99.90
2023-05-10T02:04:50.904Z,99.90
2023-05-10T02:07:18.234Z,99.90
2023-05-10T02:09:45.617Z,99.90
2023-05-10T02:12:12.969Z,99.90
2023-05-10T02:14:39.943Z,99.90
2023-05-10T02:17:07.011Z,99.90
2023-05-10T02:19:33.918Z,99.90
2023-05-10T02:22:00.818Z,99.90
2023-05-10T02:24:27.780Z,99.90
2023-05-10T02:26:55.428Z,99.90
2023-05-10T02:29:24.486Z,99.90
2023-05-10T02:31:52.747Z,99.90
2023-05-10T02:34:19.948Z,99.90
2023-05-10T02:36:47.242Z,99.90
2023-05-10T02:39:14.589Z,99.90
2023-05-10T02:41:42.254Z,99.90
2023-05-10T02:44:09.184Z,99.90
2023-05-10T02:46:36.911Z,99.90
2023-05-10T02:49:03.886Z,99.90
2023-05-10T02:51:32.907Z,99.90
2023-05-10T02:54:00.492Z,99.90
2023-05-10T02:56:32.852Z,99.90
2023-05-10T02:58:59.754Z,99.90
2023-05-10T03:01:26.647Z,99.90
2023-05-10T03:03:53.521Z,99.90
2023-05-10T03:06:20.366Z,99.90
2023-05-10T03:08:47.285Z,99.90
2023-05-10T03:11:33.327Z,99.90
2023-05-10T03:14:24.591Z,99.90
2023-05-10T03:17:33.176Z,99.90
2023-05-10T03:20:05.466Z,99.90
2023-05-10T03:22:33.613Z,99.90
2023-05-10T03:25:00.574Z,99.90
2023-05-10T03:27:30.294Z,99.90
2023-05-10T03:29:57.721Z,99.90
2023-05-10T03:32:25.601Z,99.90
2023-05-10T03:34:52.748Z,99.90
2023-05-10T03:37:20.204Z,99.90
2023-05-10T03:39:47.887Z,99.90
2023-05-10T03:42:15.874Z,99.90
2023-05-10T03:44:44.458Z,99.90
2023-05-10T03:47:11.601Z,99.90
2023-05-10T03:49:39.165Z,99.90
2023-05-10T03:52:06.921Z,99.90
2023-05-10T03:54:35.507Z,99.90
2023-05-10T03:57:03.946Z,99.90
2023-05-10T03:59:31.258Z,99.90
2023-05-10T04:01:58.301Z,99.90
2023-05-10T04:04:26.252Z,99.90
2023-05-10T04:06:53.127Z,99.90
2023-05-10T04:09:20.143Z,99.90
2023-05-10T04:11:47.123Z,99.90
2023-05-10T04:14:13.974Z,99.90
2023-05-10T04:16:41.146Z,99.90
2023-05-10T04:19:09.168Z,99.90
2023-05-10T04:21:37.004Z,99.90
2023-05-10T04:24:04.754Z,99.90
2023-05-10T04:26:32.734Z,99.90
2023-05-10T04:28:59.848Z,99.90
2023-05-10T04:31:27.702Z,99.90
2023-05-10T04:33:54.631Z,99.90
2023-05-10T04:36:21.782Z,99.90
2023-05-10T04:38:49.009Z,99.90
2023-05-10T04:41:16.250Z,99.90
2023-05-10T04:43:43.276Z,99.90
2023-05-10T04:46:10.176Z,99.90
2023-05-10T04:48:37.048Z,99.90
2023-05-10T04:51:06.034Z,99.90
2023-05-10T04:53:34.361Z,99.90
2023-05-10T04:56:01.543Z,99.90
2023-05-10T04:58:29.006Z,99.90
2023-05-10T05:00:56.050Z,99.90
2023-05-10T05:03:23.951Z,99.90
2023-05-10T05:05:51.615Z,99.90
2023-05-10T05:08:19.350Z,99.90
2023-05-10T05:10:46.724Z,99.90
2023-05-10T05:13:13.938Z,99.90
2023-05-10T05:15:40.840Z,99.90
2023-05-10T05:18:07.705Z,99.90
2023-05-10T05:20:37.417Z,99.90
2023-05-10T05:23:04.252Z,99.90
2023-05-10T05:25:31.102Z,99.90
2023-05-10T05:27:57.971Z,99.90
2023-05-10T05:30:24.800Z,99.90
2023-05-10T05:32:51.707Z,99.90
2023-05-10T05:35:18.851Z,99.90
2023-05-10T05:37:46.166Z,99.90
2023-05-10T05:40:16.311Z,99.90
2023-05-10T05:42:43.146Z,99.90
2023-05-10T05:45:14.337Z,99.90
2023-05-10T05:47:41.517Z,99.90
2023-05-10T05:50:08.891Z,99.90
2023-05-10T05:52:35.994Z,99.90
2023-05-10T05:55:03.198Z,99.90
2023-05-10T05:57:30.965Z,99.90
2023-05-10T05:59:57.852Z,99.90
2023-05-10T06:02:24.824Z,99.90
2023-05-10T06:04:51.757Z,99.90
2023-05-10T06:07:18.731Z,99.90
2023-05-10T06:09:45.846Z,99.90
2023-05-10T06:12:13.037Z,99.90
2023-05-10T06:14:40.672Z,99.90
2023-05-10T06:17:08.037Z,99.90
2023-05-10T06:19:34.906Z,99.90
2023-05-10T06:22:02.167Z,99.90
2023-05-10T06:24:29.080Z,99.90
2023-05-10T06:26:56.036Z,99.90
2023-05-10T06:29:23.025Z,99.90
2023-05-10T06:31:50.068Z,99.90
2023-05-10T06:34:17.238Z,99.90
2023-05-10T06:36:44.347Z,99.90
2023-05-10T06:39:12.687Z,99.90
2023-05-10T06:41:39.544Z,99.90
2023-05-10T06:44:06.660Z,99.90
2023-05-10T06:46:33.677Z,99.90
2023-05-10T06:49:00.972Z,99.90
2023-05-10T06:51:27.922Z,99.90
2023-05-10T06:53:55.153Z,99.90
2023-05-10T06:56:22.760Z,99.90
2023-05-10T06:58:50.033Z,99.90
2023-05-10T07:01:17.084Z,99.90
2023-05-10T07:03:44.309Z,99.90
2023-05-10T07:06:21.715Z,99.90
2023-05-10T07:08:58.213Z,99.90
2023-05-10T07:11:25.119Z,99.90
2023-05-10T07:13:52.189Z,99.90
2023-05-10T07:16:19.504Z,99.90
2023-05-10T07:18:46.420Z,99.90
2023-05-10T07:21:13.275Z,99.90
2023-05-10T07:23:40.958Z,99.90
2023-05-10T07:26:08.697Z,99.90
2023-05-10T07:28:37.715Z,99.90
2023-05-10T07:31:05.301Z,99.90
2023-05-10T07:33:33.561Z,99.90
2023-05-10T07:36:00.510Z,99.90
2023-05-10T07:38:27.352Z,99.90
2023-05-10T07:40:54.278Z,99.90
2023-05-10T07:43:21.324Z,99.90
2023-05-10T07:45:48.365Z,99.90
2023-05-10T07:48:15.656Z,99.90
2023-05-10T07:50:42.552Z,99.90
2023-05-10T07:53:09.394Z,99.90
2023-05-10T07:55:36.673Z,99.90
2023-05-10T07:58:03.735Z,99.90
2023-05-10T08:00:30.766Z,99.90
2023-05-10T08:02:57.648Z,99.90
2023-05-10T08:05:24.625Z,99.90
2023-05-10T08:07:51.545Z,99.90
2023-05-10T08:10:18.536Z,99.90
2023-05-10T08:12:45.534Z,99.90
2023-05-10T08:15:12.412Z,99.90
2023-05-10T08:17:39.377Z,99.90
2023-05-10T08:20:06.729Z,99.90
2023-05-10T08:22:33.569Z,99.90
2023-05-10T08:25:00.410Z,99.90
2023-05-10T08:27:27.253Z,99.90
2023-05-10T08:29:54.103Z,99.90
2023-05-10T08:32:20.990Z,99.90
2023-05-10T08:34:47.884Z,99.90
2023-05-10T08:37:14.856Z,99.90
2023-05-10T08:39:41.861Z,99.90
2023-05-10T08:42:09.406Z,99.90
2023-05-10T08:44:37.391Z,99.90
2023-05-10T08:47:06.494Z,99.90
2023-05-10T08:49:33.979Z,99.90
2023-05-10T08:52:04.188Z,99.90
2023-05-10T08:54:32.516Z,99.90
2023-05-10T08:56:59.488Z,99.90
2023-05-10T08:59:26.479Z,99.90
2023-05-10T09:01:54.609Z,99.90
2023-05-10T09:04:21.779Z,99.90
2023-05-10T09:06:48.731Z,99.90
2023-05-10T09:09:15.953Z,99.90
2023-05-10T09:11:43.152Z,99.90
2023-05-10T09:14:10.624Z,99.90
2023-05-10T09:16:37.459Z,99.90
2023-05-10T09:19:04.467Z,99.90
2023-05-10T09:21:32.154Z,99.90
2023-05-10T09:23:59.004Z,99.90
2023-05-10T09:26:25.846Z,99.90
2023-05-10T09:28:59.842Z,99.90
2023-05-10T09:31:47.522Z,99.90
2023-05-10T09:34:19.060Z,99.90
2023-05-10T09:36:57.302Z,99.90
2023-05-10T09:39:37.314Z,99.90
2023-05-10T09:42:10.041Z,99.90
2023-05-10T09:44:37.288Z,99.90
2023-05-10T09:47:04.337Z,99.90
2023-05-10T09:49:31.447Z,99.80
2023-05-10T09:52:02.706Z,99.00
2023-05-10T09:54:29.762Z,98.30
2023-05-10T09:56:56.656Z,96.80
2023-05-10T09:59:23.528Z,96.40
2023-05-10T10:01:54.245Z,94.90
2023-05-10T10:04:21.490Z,96.00
2023-05-10T10:06:49.024Z,96.80
2023-05-10T10:09:15.856Z,93.00
2023-05-10T10:11:42.712Z,90.10
2023-05-10T10:14:09.560Z,90.60
2023-05-10T10:16:36.503Z,90.00
2023-05-10T10:19:03.490Z,89.20
2023-05-10T10:21:30.480Z,89.00
2023-05-10T10:23:57.410Z,89.20
2023-05-10T10:26:24.283Z,89.80
2023-05-10T10:28:58.171Z,90.40
2023-05-10T10:31:48.686Z,88.10
2023-05-10T10:34:31.555Z,88.50
2023-05-10T10:36:58.995Z,90.50
2023-05-10T10:39:28.661Z,91.20
2023-05-10T10:41:56.899Z,91.60
2023-05-10T10:44:26.902Z,92.30
2023-05-10T10:47:30.782Z,92.80
2023-05-10T10:50:09.022Z,91.50
2023-05-10T10:52:37.251Z,90.50
2023-05-10T10:55:15.511Z,90.00
2023-05-10T10:57:42.506Z,88.80
2023-05-10T11:00:25.039Z,87.70
2023-05-10T11:02:54.946Z,87.60
2023-05-10T11:05:33.841Z,87.20
2023-05-10T11:08:01.202Z,87.00
2023-05-10T11:10:28.507Z,86.90
2023-05-10T11:13:05.371Z,85.80
2023-05-10T11:15:33.427Z,85.80
2023-05-10T11:18:00.435Z,86.10
2023-05-10T11:20:34.512Z,86.10
2023-05-10T11:23:13.775Z,85.00
2023-05-10T11:25:45.171Z,84.60
2023-05-10T11:28:12.969Z,86.20
2023-05-10T11:30:40.763Z,85.30
2023-05-10T11:33:08.384Z,81.90
2023-05-10T11:35:42.990Z,78.90
2023-05-10T11:38:11.123Z,77.30
2023-05-10T11:40:38.386Z,77.40
2023-05-10T11:43:05.391Z,75.90
2023-05-10T11:45:35.409Z,74.90
2023-05-10T11:48:02.572Z,73.60
2023-05-10T11:50:29.496Z,73.70
2023-05-10T11:52:56.889Z,72.10
2023-05-10T11:55:25.218Z,71.30
2023-05-10T11:57:55.552Z,69.50
2023-05-10T12:00:22.664Z,69.90
2023-05-10T12:02:49.849Z,69.90
2023-05-10T12:05:16.948Z,70.50
2023-05-10T12:07:44.007Z,71.40
2023-05-10T12:10:15.502Z,70.90
2023-05-10T12:12:46.778Z,69.00
2023-05-10T12:15:20.872Z,67.70
2023-05-10T12:17:48.053Z,67.90
2023-05-10T12:20:19.799Z,69.60
2023-05-10T12:22:54.529Z,71.00
2023-05-10T12:25:22.707Z,69.70
2023-05-10T12:27:53.748Z,73.10
2023-05-10T12:30:22.572Z,73.90
2023-05-10T12:32:49.567Z,74.10
2023-05-10T12:35:17.023Z,73.30
2023-05-10T12:37:44.414Z,71.40
2023-05-10T12:40:14.599Z,70.00
2023-05-10T12:42:41.642Z,69.60
2023-05-10T12:45:09.253Z,67.00
2023-05-10T12:47:36.196Z,65.60
2023-05-10T12:50:03.700Z,65.70
2023-05-10T12:52:30.917Z,64.90
2023-05-10T12:54:57.806Z,65.60
2023-05-10T12:57:24.643Z,63.60
2023-05-10T12:59:51.558Z,61.80
2023-05-10T13:02:19.196Z,63.80
2023-05-10T13:04:48.941Z,64.10
2023-05-10T13:07:17.779Z,65.60
2023-05-10T13:09:44.720Z,65.20
2023-05-10T13:12:11.598Z,66.00
2023-05-10T13:14:38.678Z,66.70
2023-05-10T13:17:05.991Z,65.70
2023-05-10T13:19:32.877Z,66.50
2023-05-10T13:21:59.797Z,65.30
2023-05-10T13:24:26.675Z,65.50
2023-05-10T13:26:53.535Z,65.70
2023-05-10T13:29:21.995Z,65.80
2023-05-10T13:31:49.041Z,67.90
2023-05-10T13:34:15.883Z,68.40
2023-05-10T13:36:43.099Z,70.00
2023-05-10T13:39:09.961Z,70.80
2023-05-10T13:41:37.761Z,72.40
2023-05-10T13:44:04.690Z,73.60
2023-05-10T13:46:32.012Z,74.30
2023-05-10T13:48:58.956Z,72.10
2023-05-10T13:51:25.879Z,71.10
2023-05-10T13:53:53.168Z,70.90
2023-05-10T13:56:20.086Z,65.90
2023-05-10T13:58:47.476Z,63.50
2023-05-10T14:01:14.439Z,64.80
2023-05-10T14:03:41.605Z,60.90
2023-05-10T14:06:08.975Z,59.10
2023-05-10T14:08:36.453Z,59.80
2023-05-10T14:11:03.346Z,59.10
2023-05-10T14:13:30.248Z,57.80
2023-05-10T14:15:57.240Z,57.90
2023-05-10T14:18:24.177Z,57.70
2023-05-10T14:20:51.355Z,56.50
2023-05-10T14:23:18.306Z,56.70
2023-05-10T14:25:45.240Z,55.90
2023-05-10T14:28:13.381Z,56.10
2023-05-10T14:30:40.308Z,55.60
2023-05-10T14:33:07.245Z,56.40
2023-05-10T14:35:34.167Z,55.60
2023-05-10T14:38:01.024Z,54.80
2023-05-10T14:40:27.879Z,53.20
2023-05-10T14:42:54.714Z,54.00
2023-05-10T14:45:22.062Z,53.70
2023-05-10T14:47:49.069Z,54.40
2023-05-10T14:50:28.209Z,54.60
2023-05-10T14:53:02.455Z,53.40
2023-05-10T14:55:29.263Z,53.30
2023-05-10T14:57:56.164Z,51.90
2023-05-10T15:00:23.465Z,49.70
2023-05-10T15:02:50.818Z,50.20
2023-05-10T15:05:18.416Z,50.10
2023-05-10T15:07:45.785Z,50.70
2023-05-10T15:10:12.710Z,52.20
2023-05-10T15:12:39.670Z,53.70
2023-05-10T15:15:07.403Z,54.40
2023-05-10T15:17:34.657Z,54.50
2023-05-10T15:20:04.109Z,52.70
2023-05-10T15:22:34.358Z,51.90
2023-05-10T15:25:01.432Z,52.60
2023-05-10T15:27:28.385Z,53.70
2023-05-10T15:29:55.288Z,54.50
2023-05-10T15:32:22.367Z,56.20
2023-05-10T15:34:49.377Z,57.90
2023-05-10T15:37:16.253Z,58.90
2023-05-10T15:39:43.148Z,59.30
2023-05-10T15:42:10.026Z,59.60
2023-05-10T15:44:39.356Z,61.00
2023-05-10T15:47:07.752Z,62.30
2023-05-10T15:49:35.084Z,63.90
2023-05-10T15:52:02.047Z,65.30
2023-05-10T15:54:28.843Z,66.60
2023-05-10T15:56:55.695Z,67.40
2023-05-10T15:59:22.627Z,68.70
2023-05-10T16:01:50.273Z,71.50
2023-05-10T16:04:17.287Z,72.40
2023-05-10T16:06:44.193Z,77.30
2023-05-10T16:09:11.051Z,79.90
2023-05-10T16:11:37.895Z,80.60
2023-05-10T16:14:07.077Z,82.20
2023-05-10T16:16:34.367Z,83.10
2023-05-10T16:19:02.423Z,84.50
2023-05-10T16:21:32.262Z,87.20
2023-05-10T16:24:03.695Z,88.20
2023-05-10T16:26:30.693Z,89.60
2023-05-10T16:28:57.567Z,89.60
2023-05-10T16:31:24.770Z,86.30
2023-05-10T16:33:51.765Z,86.70
2023-05-10T16:36:18.600Z,89.10
2023-05-10T16:38:45.893Z,90.10
2023-05-10T16:41:12.835Z,91.50
2023-05-10T16:43:39.757Z,93.20
2023-05-10T16:46:12.836Z,95.90
2023-05-10T16:48:39.823Z,97.10
2023-05-10T16:51:06.729Z,97.30
2023-05-10T16:53:34.093Z,99.90
2023-05-10T16:56:01.311Z,99.90
2023-05-10T16:58:28.195Z,99.90
2023-05-10T17:01:06.732Z,99.90
2023-05-10T17:03:38.082Z,99.90
2023-05-10T17:06:06.713Z,99.90
2023-05-10T17:08:33.805Z,99.90
2023-05-10T17:11:04.230Z,99.90
2023-05-10T17:13:31.935Z,99.90
2023-05-10T17:15:59.043Z,99.90
2023-05-10T17:18:26.759Z,99.90
2023-05-10T17:20:53.945Z,99.90
2023-05-10T17:23:21.085Z,99.90
2023-05-10T17:25:47.938Z,99.90
2023-05-10T17:28:14.796Z,99.90
2023-05-10T17:30:41.661Z,99.90
2023-05-10T17:33:08.503Z,99.90
2023-05-10T17:35:35.459Z,99.90
2023-05-10T17:38:02.744Z,99.90
2023-05-10T17:40:29.718Z,99.90
2023-05-10T17:42:56.611Z,99.90
2023-05-10T17:45:23.536Z,99.90
2023-05-10T17:47:50.486Z,99.90
2023-05-10T17:50:17.448Z,99.90
2023-05-10T17:52:44.259Z,99.90
2023-05-10T17:55:11.814Z,99.90
2023-05-10T17:57:38.884Z,99.90
2023-05-10T18:00:08.748Z,99.90
2023-05-10T18:02:36.948Z,99.90
2023-05-10T18:05:04.738Z,99.90
2023-05-10T18:07:31.878Z,99.90
2023-05-10T18:09:58.867Z,99.90
2023-05-10T18:12:25.778Z,99.90
2023-05-10T18:14:52.631Z,99.90
2023-05-10T18:17:19.563Z,99.90
2023-05-10T18:19:46.498Z,99.90
2023-05-10T18:22:13.293Z,99.90
2023-05-10T18:24:40.406Z,99.90
2023-05-10T18:27:09.943Z,99.90
2023-05-10T18:29:37.190Z,99.90
2023-05-10T18:32:04.197Z,99.90
2023-05-10T18:34:31.108Z,99.90
2023-05-10T18:36:58.017Z,99.90
2023-05-10T18:39:25.079Z,99.90
2023-05-10T18:41:52.164Z,99.90
2023-05-10T18:44:19.171Z,99.90
2023-05-10T18:46:46.521Z,99.90
2023-05-10T18:49:13.475Z,99.90
2023-05-10T18:51:40.521Z,99.90
2023-05-10T18:54:07.511Z,99.90
2023-05-10T18:56:34.381Z,99.90
2023-05-10T18:59:01.525Z,99.90
2023-05-10T19:01:28.514Z,99.90
2023-05-10T19:03:55.422Z,99.90
2023-05-10T19:06:22.303Z,99.90
2023-05-10T19:08:50.029Z,99.90
2023-05-10T19:11:17.516Z,99.90
2023-05-10T19:13:45.363Z,99.90
2023-05-10T19:16:15.225Z,99.90
2023-05-10T19:18:44.175Z,99.90
2023-05-10T19:21:11.529Z,99.90
2023-05-10T19:23:40.382Z,99.90
2023-05-10T19:26:09.313Z,99.90
2023-05-10T19:28:37.125Z,99.90
2023-05-10T19:31:04.154Z,99.90
2023-05-10T19:33:31.707Z,99.90
2023-05-10T19:35:58.616Z,99.90
2023-05-10T19:38:25.643Z,99.90
2023-05-10T19:40:58.033Z,99.90
2023-05-10T19:43:28.800Z,99.90
2023-05-10T19:45:59.264Z,99.90
2023-05-10T19:48:26.711Z,99.90
2023-05-10T19:50:54.007Z,99.90
2023-05-10T19:53:20.939Z,99.90
2023-05-10T19:55:48.480Z,99.90
2023-05-10T19:58:15.402Z,99.90
2023-05-10T20:00:42.306Z,99.90
2023-05-10T20:03:09.480Z,99.90
2023-05-10T20:05:36.590Z,99.90
2023-05-10T20:08:03.471Z,99.90
2023-05-10T20:10:30.578Z,99.90
2023-05-10T20:12:58.762Z,99.90
2023-05-10T20:15:25.760Z,99.90
2023-05-10T20:17:55.627Z,99.90
2023-05-10T20:20:22.710Z,99.90
2023-05-10T20:22:50.545Z,99.90
2023-05-10T20:25:18.055Z,99.90
2023-05-10T20:27:45.374Z,99.90
2023-05-10T20:30:12.603Z,99.90
2023-05-10T20:32:39.644Z,99.90
2023-05-10T20:35:07.254Z,99.90
2023-05-10T20:37:34.091Z,99.90
2023-05-10T20:40:01.186Z,99.90
2023-05-10T20:42:28.046Z,99.90
2023-05-10T20:44:54.925Z,99.90
2023-05-10T20:47:23.517Z,99.90
2023-05-10T20:49:50.492Z,99.90
2023-05-10T20:52:17.507Z,99.90
2023-05-10T20:54:44.355Z,99.90
2023-05-10T20:57:14.557Z,99.90
2023-05-10T20:59:41.425Z,99.90
2023-05-10T21:02:08.347Z,99.90
2023-05-10T21:04:35.293Z,99.90
2023-05-10T21:07:02.292Z,99.90
2023-05-10T21:09:29.257Z,99.90
2023-05-10T21:11:56.155Z,99.90
2023-05-10T21:14:23.104Z,99.90
2023-05-10T21:16:51.284Z,99.90
2023-05-10T21:19:18.276Z,99.90
2023-05-10T21:21:45.190Z,99.90
2023-05-10T21:24:12.597Z,99.90
2023-05-10T21:26:39.689Z,99.90
2023-05-10T21:29:07.191Z,99.90
2023-05-10T21:31:34.212Z,99.90
2023-05-10T21:34:01.268Z,99.90
2023-05-10T21:36:28.206Z,99.90
2023-05-10T21:38:55.091Z,99.90
2023-05-10T21:41:22.034Z,99.90
2023-05-10T21:43:48.901Z,99.90
2023-05-10T21:46:15.910Z,99.90
2023-05-10T21:48:42.880Z,99.90
2023-05-10T21:51:09.859Z,99.90
2023-05-10T21:53:37.555Z,99.90
2023-05-10T21:56:04.865Z,99.90
2023-05-10T21:58:31.724Z,99.90
2023-05-10T22:00:58.637Z,99.90
2023-05-10T22:03:26.302Z,99.90
2023-05-10T22:05:53.290Z,99.90
2023-05-10T22:08:20.148Z,99.90
2023-05-10T22:10:47.005Z,99.90
2023-05-10T22:13:14.170Z,99.90
2023-05-10T22:15:41.012Z,99.90
2023-05-10T22:18:08.001Z,99.90
2023-05-10T22:20:34.842Z,99.90
2023-05-10T22:23:01.786Z,99.90
2023-05-10T22:25:28.672Z,99.90
2023-05-10T22:27:55.899Z,99.90
2023-05-10T22:30:22.855Z,99.90
2023-05-10T22:32:49.769Z,99.90
2023-05-10T22:35:16.714Z,99.90
2023-05-10T22:37:43.649Z,99.90
2023-05-10T22:40:11.087Z,99.90
2023-05-10T22:42:38.463Z,99.90
2023-05-10T22:45:05.911Z,99.90
2023-05-10T22:47:33.638Z,99.90
2023-05-10T22:50:03.311Z,99.90
2023-05-10T22:52:30.207Z,99.90
2023-05-10T22:54:57.288Z,99.90
2023-05-10T22:57:24.567Z,99.90
2023-05-10T22:59:51.731Z,99.90
2023-05-10T23:02:18.638Z,99.90
2023-05-10T23:04:45.643Z,99.90
2023-05-10T23:07:12.790Z,99.90
2023-05-10T23:09:39.698Z,99.90
2023-05-10T23:12:06.637Z,99.90
2023-05-10T23:14:33.554Z,99.90
2023-05-10T23:17:00.670Z,99.90
2023-05-10T23:19:27.532Z,99.90
2023-05-10T23:21:54.456Z,99.90
2023-05-10T23:24:21.352Z,99.90
2023-05-10T23:26:48.262Z,99.90
2023-05-10T23:29:15.236Z,99.90
2023-05-10T23:31:45.659Z,99.90
2023-05-10T23:34:12.683Z,99.90
2023-05-10T23:36:39.627Z,99.90
2023-05-10T23:39:08.210Z,99.90
2023-05-10T23:41:35.152Z,99.90
2023-05-10T23:44:04.835Z,99.90
2023-05-10T23:46:31.735Z,99.90
2023-05-10T23:48:58.700Z,99.90
2023-05-10T23:51:25.656Z,99.90
2023-05-10T23:53:52.522Z,99.90
2023-05-10T23:56:19.396Z,99.90
2023-05-10T23:58:46.460Z,99.90
